Fairweather — WTEB — position and weather

sailwx.info

Track history (hours):
 
Tides and Currents Weather Stations Pressure Air Temp Water Temp Dewpoint Dewpoint Depression Visibility Wind Speed Wind Dir Waves Ship Positions

Oceanographic research ship Fairweather (USA)

Detailed information on ship capabilities available from University of Delaware's Ocean Information Center.

Last reported at 2017-Oct-19 16:00 UTC. Time now 2017-Oct-19 16:34 UTC.
Position N 59°30' W 139°42'.

Type: Other ship. MMSI: 369960000.

Wind from 290 at 2 knots

Barometer 979.7 mb
Air temperature 6.3 ° C
Dewpoint 4.6 ° C
Water temperature 9.5 ° C

Date/timePositionNaut miles runAvg speedWind from/ knotsBaromVisibWave heightAir tempDewpointWater temp
2017-Oct-19 16:00N 59°30' W 139°42'0 0.0 290 / 2979.7 6.3 4.6 9.5
2017-Oct-19 15:00N 59°30' W 139°42'0 0.0 120 / 5979.7 5.4 3.1 9.6
2017-Oct-19 14:00N 59°30' W 139°42'0 0.0 130 / 4979.7 6.9 2.1 9.8
2017-Oct-19 13:00N 59°30' W 139°42'0 0.0 110 / 2979.7 9.6 4.3 9.8
2017-Oct-19 12:00N 59°30' W 139°42'0 0.0 030 / 4979.7 10.3 3.410.1
2017-Oct-19 11:00N 59°30' W 139°42'0 0.0 030 / 5979.7 7.7 3.8 9.9
2017-Oct-19 10:00N 59°30' W 139°42'0 0.0 100 / 4979.7 5.8 2.6 9.8
2017-Oct-19 09:00N 59°30' W 139°42'0 0.0 979.7 6.0 2.5 9.6
2017-Oct-19 08:00N 59°30' W 139°42'0 0.0 120 / 2979.7 10.0 3.3 9.8
2017-Oct-19 07:00N 59°30' W 139°42'0 0.0 090 / 3979.7 6.9 2.1 9.3
2017-Oct-19 06:00N 59°30' W 139°42'0 0.0 110 / 4979.7 10.8 2.6 9.8
2017-Oct-19 04:40N 59°30' W 139°42'0 0.0 070 / 3979.7 11.4 4.2 9.7
2017-Oct-19 03:40N 59°30' W 139°42'0 0.0 090 / 3979.7 11.2 4.2 9.3
2017-Oct-19 02:40N 59°30' W 139°42'0 0.0 090 / 2979.7 7.7 5.1 9.3
2017-Oct-19 01:40N 59°30' W 139°42'0 0.0 979.7 9.1 4.4 9.9
2017-Oct-19 00:40N 59°30' W 139°42'0 0.0 090 / 3979.7 9.5 2.210.4
2017-Oct-18 22:40N 59°30' W 139°42'0 0.0 020 / 1979.7 10.3 0.7 9.4
2017-Oct-18 21:40N 59°30' W 139°42'0 0.0 040 / 3979.7 9.3-0.6 9.1
2017-Oct-18 20:40N 59°30' W 139°42'0 0.0 110 / 4979.7 10.5 1.5 9.6
2017-Oct-18 19:40N 59°30' W 139°42'0 0.0 040 / 2979.7 9.8-1.8 9.7
2017-Oct-18 18:40N 59°30' W 139°42'3 4.6 110 / 2979.5 6.9 3.6 9.8
2017-Oct-18 18:00N 59°30' W 139°36'3 9.1 290 / 2979.5 7.5 9.6
2017-Oct-18 17:40N 59°30' W 139°42'0 0.0 280 / 4979.5 8.4 3.2 9.8
2017-Oct-18 16:40N 59°30' W 139°42'0 0.0 140 / 5979.3 9.2 3.2 9.5
2017-Oct-18 15:41N 59°30' W 139°42'0 0.0 040 / 7979.4 7.2 0.6 9.4
2017-Oct-18 14:41N 59°30' W 139°42'0 0.0 080 / 4980.6 6.2 2.4 9.5
2017-Oct-18 13:41N 59°30' W 139°42'0 0.0 090 / 4982.0 6.0 2.0 9.6
2017-Oct-18 12:41N 59°30' W 139°42'0 0.0 120 / 3983.3 6.4 1.710.4
2017-Oct-18 11:41N 59°30' W 139°42'0 0.0 100 / 4985.3 5.4 1.310.3
2017-Oct-18 10:41N 59°30' W 139°42'0 0.0 080 / 5987.0 6.7 1.0 9.7
2017-Oct-18 09:41N 59°30' W 139°42'0 0.0 070 / 6988.7 5.9 1.510.0
2017-Oct-18 08:42N 59°30' W 139°42'0 0.0 070 / 2990.9 5.3 2.5 9.6
2017-Oct-18 07:42N 59°30' W 139°42'0 0.0 060 / 8992.2 5.8 1.8 9.4
2017-Oct-18 06:42N 59°30' W 139°42'0 0.0 060 / 13993.5 5.4 1.5 9.9
2017-Oct-18 05:42N 59°30' W 139°42'0 0.0 040 / 10994.9 5.5 2.210.0
2017-Oct-18 04:42N 59°30' W 139°42'0 0.0 080 / 10996.2 4.8 2.4 9.6
2017-Oct-18 03:42N 59°30' W 139°42'7 6.7 030 / 5997.3 4.3 3.2 9.9
2017-Oct-18 02:42N 59°36' W 139°48'6 6.0 100 / 21997.1 5.6 3.2 9.8
2017-Oct-18 01:42N 59°42' W 139°48'9 8.5 130 / 22998.2 6.3 3.3 9.4
2017-Oct-18 00:42N 59°48' W 139°36'7 3.4 140 / 8999.1 8.2 3.0 9.0
2017-Oct-17 22:43N 59°42' W 139°42'3 3.0 120 / 22999.3 5.7 2.8 8.5
2017-Oct-17 21:43N 59°42' W 139°48'3 4.2 130 / 19999.7 5.1 3.5 9.9
2017-Oct-17 21:00N 59°42' W 139°42'0 0.0 050 / 9999.1 5.4 6.7 4.4 8.9
2017-Oct-17 20:43N 59°42' W 139°42'3 3.0 150 / 8999.3 6.2 2.4 8.8
2017-Oct-17 19:43N 59°42' W 139°48'9 8.7 100 / 18999.1 5.6 3.0 9.2
2017-Oct-17 18:44N 59°36' W 140°00'1114.9 100 / 24998.7 5.2 3.410.1
2017-Oct-17 18:00N 59°42' W 139°42'311.4 080 / 9999.8 5.4 5.5-28.1 9.1
2017-Oct-17 17:44N 59°42' W 139°48'9 8.5 100 / 8999.6 5.6 1.6 9.0
2017-Oct-17 16:44N 59°48' W 139°36'0 0.0 130 / 11000.0 5.0 3.0 8.6
2017-Oct-17 15:44N 59°48' W 139°36'3 4.1 020 / 71000.0 5.5 0.6 8.7
2017-Oct-17 15:00N 59°48' W 139°30'311.3 090 / 5998.0 2.2 5.9 0.8 8.9
2017-Oct-17 14:44N 59°48' W 139°36'0 0.0 100 / 21000.3 4.8 3.0 8.9
2017-Oct-17 13:44N 59°48' W 139°36'0 0.0 060 / 21000.5 4.9 2.9 9.0
2017-Oct-17 12:44N 59°48' W 139°36'0 0.0 070 / 41000.6 4.2 2.7 9.1
2017-Oct-17 11:44N 59°48' W 139°36'0 0.0 110 / 31000.7 4.6 3.2 9.1
2017-Oct-17 10:44N 59°48' W 139°36'0 0.0 110 / 41001.0 4.7 3.3 9.1
2017-Oct-17 09:45N 59°48' W 139°36'0 0.0 1001.0 5.1 3.2 8.8
2017-Oct-17 08:45N 59°48' W 139°36'0 0.0 080 / 31000.8 5.5 3.0 8.9
2017-Oct-17 07:46N 59°48' W 139°36'0 0.0 060 / 21000.6 7.5 3.8 9.1
2017-Oct-17 06:46N 59°48' W 139°36'0 0.0 040 / 41000.7 7.7 4.4 9.0
2017-Oct-17 05:46N 59°48' W 139°36'0 0.0 160 / 41000.7 4.5 3.1 8.9
2017-Oct-17 04:47N 59°48' W 139°36'3 3.9 200 / 61000.5 5.5 3.0 9.0
2017-Oct-17 04:00N 59°48' W 139°30'313.9 180 / 51000.5 7.0 9.1
2017-Oct-17 03:47N 59°48' W 139°36'0 0.0 240 / 11000.3 7.2 4.7 9.1
2017-Oct-17 02:47N 59°48' W 139°36'0 0.0 040 / 21000.0 5.4 3.9 9.1
2017-Oct-17 01:48N 59°48' W 139°36'0 0.0 020 / 61000.2 4.8 3.4 9.1
2017-Oct-17 00:48N 59°48' W 139°36'9 4.3 170 / 61000.1 6.6 4.4 9.2
2017-Oct-16 22:49N 59°42' W 139°48'0 0.0 120 / 3999.4 6.4 3.8 9.1
2017-Oct-16 21:49N 59°42' W 139°48'6 7.3 130 / 6999.5 6.3 3.6 9.0
2017-Oct-16 21:00N 59°36' W 139°48'316.6 110 / 9997.0 5.4 6.4 9.7
2017-Oct-16 20:49N 59°36' W 139°54'9 8.7 100 / 9999.1 6.4 3.510.3
2017-Oct-16 19:50N 59°42' W 139°42'7 6.7 050 / 3999.1 6.7 3.8 8.9
2017-Oct-16 18:50N 59°48' W 139°36'3 3.0 020 / 3998.8 6.5 2.6 8.8
2017-Oct-16 17:50N 59°48' W 139°42'0 0.0 030 / 13998.9 5.9 2.8 8.9
2017-Oct-16 16:50N 59°48' W 139°42'7 6.7 060 / 15998.8 5.7 3.3 8.9
2017-Oct-16 15:50N 59°54' W 139°36'3 3.1 050 / 10999.4 5.0 2.9 8.3
2017-Oct-16 14:51N 59°54' W 139°30'0 0.0 999.8 4.6 2.7 9.2
2017-Oct-16 13:51N 59°54' W 139°30'0 0.0 050 / 21000.5 5.7 3.7 9.3
2017-Oct-16 12:51N 59°54' W 139°30'0 0.0 360 / 121000.9 5.4 2.9 8.7
2017-Oct-16 11:51N 59°54' W 139°30'0 0.0 020 / 41001.7 5.8 3.3 9.3
2017-Oct-16 10:52N 59°54' W 139°30'0 0.0 360 / 61002.0 3.6 2.3 8.9
2017-Oct-16 09:52N 59°54' W 139°30'0 0.0 350 / 11002.2 4.2 2.4 9.5
2017-Oct-16 08:52N 59°54' W 139°30'0 0.0 120 / 21002.1 4.8 3.2 9.2
2017-Oct-16 07:52N 59°54' W 139°30'0 0.0 060 / 31002.0 4.0 2.0 9.2
2017-Oct-16 06:52N 59°54' W 139°30'0 0.0 020 / 41001.8 3.4 1.8 9.2
2017-Oct-16 05:53N 59°54' W 139°30'0 0.0 020 / 91001.5 3.6 2.0 9.2
2017-Oct-16 04:53N 59°54' W 139°30'0 0.0 270 / 21001.5 4.2 3.1 9.5
2017-Oct-16 03:53N 59°54' W 139°30'0 0.0 1001.2 4.3 3.1 9.0
2017-Oct-16 02:53N 59°54' W 139°30'0 0.0 170 / 21001.0 5.2 4.0 9.1
2017-Oct-16 01:53N 59°54' W 139°30'0 0.0 010 / 51000.6 4.5 2.9 9.2
2017-Oct-16 00:53N 59°54' W 139°30'0 0.0 120 / 31000.7 6.7 4.0 9.3
2017-Oct-15 22:54N 59°54' W 139°30'0 0.0 350 / 21000.2 4.3 2.6 9.3
2017-Oct-15 21:54N 59°54' W 139°30'3 3.3 020 / 5999.8 4.3 2.7 9.4
2017-Oct-15 21:00N 59°54' W 139°24'330.1 020 / 5996.1 2.2 6.9-0.1 9.2
2017-Oct-15 20:54N 59°54' W 139°30'0 0.0 360 / 2998.9 4.3 3.0 9.3
2017-Oct-15 19:54N 59°54' W 139°30'0 0.0 050 / 3998.0 7.7 4.0 9.4
2017-Oct-15 18:54N 59°54' W 139°30'0 0.0 290 / 2996.9 5.8 3.4 9.3
2017-Oct-15 17:55N 59°54' W 139°30'0 0.0 070 / 4995.7 6.4 3.2 9.1
2017-Oct-15 16:55N 59°54' W 139°30'0 0.0 190 / 3994.6 6.9 2.4 9.3
2017-Oct-15 15:55N 59°54' W 139°30'3 3.3 010 / 7993.0 7.9 2.8 9.3
2017-Oct-15 15:00N 59°54' W 139°24'336.1 080 / 5990.0 2.2 8.7 9.3
2017-Oct-15 14:55N 59°54' W 139°30'0 0.0 080 / 8992.1 8.9 1.5 9.3
2017-Oct-15 13:55N 59°54' W 139°30'0 0.0 350 / 8991.4 7.5 2.3 9.7
2017-Oct-15 12:55N 59°54' W 139°30'0 0.0 330 / 8991.8 7.4 2.5 9.2
2017-Oct-15 11:56N 59°54' W 139°30'0 0.0 060 / 18991.7 9.2 0.6 9.3
2017-Oct-15 10:56N 59°54' W 139°30'0 0.0 030 / 10992.4 6.9 2.4 9.2
2017-Oct-15 09:56N 59°54' W 139°30'0 0.0 070 / 8993.5 7.5 2.0 9.1
2017-Oct-15 08:56N 59°54' W 139°30'0 0.0 040 / 9993.5 7.9 1.9 9.2
2017-Oct-15 06:56N 59°54' W 139°30'0 0.0 120 / 10996.0 8.7-0.3 9.1
2017-Oct-15 05:56N 59°54' W 139°30'0 0.0 350 / 12996.8 7.8 2.5 9.1
2017-Oct-15 04:56N 59°54' W 139°30'0 0.0 080 / 5999.9 7.9 1.0 8.9
2017-Oct-15 03:57N 59°54' W 139°30'0 0.0 080 / 71002.8 7.2 2.3 9.1
2017-Oct-15 02:57N 59°54' W 139°30'0 0.0 010 / 121005.2 5.4 3.5 9.2
2017-Oct-15 01:57N 59°54' W 139°30'0 0.0 150 / 21007.1 6.0 3.8 8.9
2017-Oct-15 00:57N 59°54' W 139°30'0 0.0 020 / 51008.3 7.3 4.1 8.9
2017-Oct-14 22:57N 59°54' W 139°30'0 0.0 020 / 71010.8 5.5 3.1 9.1
2017-Oct-14 21:58N 59°54' W 139°30'0 0.0 010 / 111011.9 5.2 3.4 9.1
2017-Oct-14 20:58N 59°54' W 139°30'0 0.0 010 / 51012.8 5.3 3.7 9.0
2017-Oct-14 19:58N 59°54' W 139°30'0 0.0 020 / 31013.5 5.9 3.0 9.0
2017-Oct-14 18:58N 59°54' W 139°30'0 0.0 360 / 101013.4 5.1 3.2 9.1
2017-Oct-14 17:58N 59°54' W 139°30'0 0.0 350 / 51013.7 4.9 3.5 9.1
2017-Oct-14 16:58N 59°54' W 139°30'0 0.0 030 / 31013.5 4.9 3.8 9.2
2017-Oct-14 15:59N 59°54' W 139°30'0 0.0 040 / 21013.8 4.9 3.5 9.0
2017-Oct-14 14:59N 59°54' W 139°30'0 0.0 010 / 131013.6 5.2 3.6 9.4
2017-Oct-14 13:59N 59°54' W 139°30'0 0.0 010 / 71014.0 5.1 3.2 9.2
2017-Oct-14 12:59N 59°54' W 139°30'3 3.1 010 / 111014.0 5.4 4.8 9.2
2017-Oct-14 12:00N 59°54' W 139°24'3 3.0 020 / 131010.1 6.7 5.5 9.4
2017-Oct-14 11:00N 59°54' W 139°30'0 0.0 030 / 51013.6 9.5 6.3 8.7
2017-Oct-14 10:00N 59°54' W 139°30'0 0.0 030 / 31013.5 6.2 5.0 9.1
2017-Oct-14 08:39N 59°54' W 139°30'0 0.0 020 / 41013.3 5.9 5.2 9.1
2017-Oct-14 07:40N 59°54' W 139°30'0 0.0 030 / 41013.2 5.9 5.0 8.9
2017-Oct-14 06:40N 59°54' W 139°30'3 4.5 080 / 81012.5 7.5 3.8 8.9
2017-Oct-14 06:00N 59°54' W 139°24'3 9.0 5.4
2017-Oct-14 05:40N 59°54' W 139°30'0 0.0 160 / 51012.3 7.3 4.9 7.7
2017-Oct-14 04:40N 59°54' W 139°30'0 0.0 270 / 21011.7 11.6 5.3 8.9
2017-Oct-14 03:40N 59°54' W 139°30'0 0.0 030 / 91011.9 7.5 4.7 9.0
2017-Oct-14 02:40N 59°54' W 139°30'0 0.0 020 / 91012.4 7.1 4.2 8.9
2017-Oct-14 01:40N 59°54' W 139°30'3 3.1 020 / 101012.8 6.1 4.6 9.1
2017-Oct-14 00:41N 59°54' W 139°36'12 6.2 030 / 141012.3 5.6 5.0 9.2
2017-Oct-13 22:41N 59°42' W 139°42'3 3.0 120 / 221012.0 8.0 6.5 8.6
2017-Oct-13 21:41N 59°42' W 139°48'0 0.0 100 / 181012.3 7.5 6.4 9.0
2017-Oct-13 20:41N 59°42' W 139°48'1212.0 080 / 171013.2 7.0 6.2 8.6
2017-Oct-13 19:41N 59°30' W 139°48'3 3.0 080 / 151013.4 6.4 5.8 9.9
2017-Oct-13 18:41N 59°30' W 139°42'0 0.0 060 / 111014.4 5.6 5.010.3
2017-Oct-13 17:41N 59°30' W 139°42'0 0.0 030 / 41015.1 5.7 5.210.4
2017-Oct-13 16:41N 59°30' W 139°42'0 0.0 050 / 41015.9 5.2 4.610.8
2017-Oct-13 15:42N 59°30' W 139°42'0 0.0 050 / 71016.8 4.8 4.010.8
2017-Oct-13 14:42N 59°30' W 139°42'0 0.0 080 / 131017.6 5.0 4.010.5
2017-Oct-13 13:42N 59°30' W 139°42'0 0.0 090 / 151018.7 5.2 4.010.4
2017-Oct-13 12:42N 59°30' W 139°42'0 0.0 090 / 121019.1 5.4 4.010.3
2017-Oct-13 11:42N 59°30' W 139°42'0 0.0 090 / 71019.5 5.6 4.510.3
2017-Oct-13 10:42N 59°30' W 139°42'0 0.0 070 / 51020.5 5.8 4.110.4
2017-Oct-13 09:42N 59°30' W 139°42'0 0.0 090 / 71021.1 6.4 3.810.4
2017-Oct-13 08:42N 59°30' W 139°42'0 0.0 090 / 91021.2 6.8 2.910.4
2017-Oct-13 07:42N 59°30' W 139°42'0 0.0 100 / 81021.1 6.5 1.210.4
2017-Oct-13 06:42N 59°30' W 139°42'0 0.0 100 / 61021.4 6.3 0.210.5
2017-Oct-13 05:42N 59°30' W 139°42'0 0.0 100 / 81021.5 6.4 0.510.5
2017-Oct-13 04:42N 59°30' W 139°42'0 0.0 090 / 81021.8 6.5 0.810.7
2017-Oct-13 03:43N 59°30' W 139°42'0 0.0 120 / 41022.2 6.7 1.710.6
2017-Oct-13 02:43N 59°30' W 139°42'0 0.0 080 / 31022.4 8.9 5.710.9
2017-Oct-13 01:43N 59°30' W 139°42'0 0.0 290 / 11022.4 11.9 4.311.1
2017-Oct-13 00:43N 59°30' W 139°42'0 0.0 300 / 41022.7 10.5 2.710.8
2017-Oct-12 22:43N 59°30' W 139°42'0 0.0 270 / 31023.5 11.3 5.011.3
2017-Oct-12 21:43N 59°30' W 139°42'3 4.2 280 / 31023.6 9.6 4.911.5
2017-Oct-12 21:00N 59°30' W 139°36'311.4 290 / 21021.3 5.4 11.0 11.3
2017-Oct-12 20:44N 59°30' W 139°42'0 0.0 270 / 11023.9 10.1 5.511.4
2017-Oct-12 19:44N 59°30' W 139°42'0 0.0 280 / 11023.7 15.7 5.510.9
2017-Oct-12 18:44N 59°30' W 139°42'3 4.2 210 / 11023.5 7.3 3.511.0
2017-Oct-12 18:00N 59°30' W 139°36'311.4 090 / 21020.727.0 5.4 10.3
2017-Oct-12 17:44N 59°30' W 139°42'0 0.0 090 / 21023.1 6.1 2.010.5
2017-Oct-12 16:44N 59°30' W 139°42'0 0.0 110 / 31022.9 9.2 2.810.3
2017-Oct-12 15:44N 59°30' W 139°42'3 4.2 110 / 61022.6 2.9 2.310.7
2017-Oct-12 15:00N 59°30' W 139°36'312.2 080 / 21020.0 2.5 1.311.6
2017-Oct-12 14:45N 59°30' W 139°42'0 0.0 100 / 41022.6 2.8 2.311.6
2017-Oct-12 13:45N 59°30' W 139°42'0 0.0 100 / 51022.3 3.0 2.511.4
2017-Oct-12 12:45N 59°30' W 139°42'3 4.1 100 / 41022.4 2.9 2.311.3
2017-Oct-12 12:00N 59°30' W 139°36'312.2 110 / 21019.9 3.2 1.310.9
2017-Oct-12 11:45N 59°30' W 139°42'0 0.0 100 / 31022.3 3.2 2.311.1
2017-Oct-12 10:46N 59°30' W 139°42'0 0.0 110 / 21022.1 3.6 2.511.0
2017-Oct-12 09:46N 59°30' W 139°42'0 0.0 1022.1 3.6 2.510.5
2017-Oct-12 08:46N 59°30' W 139°42'0 0.0 100 / 41022.1 4.7 3.010.2
2017-Oct-12 07:46N 59°30' W 139°42'0 0.0 090 / 31022.0 5.0 4.510.9
2017-Oct-12 06:46N 59°30' W 139°42'3 4.0 110 / 41021.8 4.7 4.110.9
2017-Oct-12 06:00N 59°30' W 139°36'313.1 120 / 21021.5 5.5 3.810.6
2017-Oct-12 05:46N 59°30' W 139°42'0 0.0 150 / 11021.5 5.3 4.510.6
2017-Oct-12 04:46N 59°30' W 139°42'0 0.0 110 / 31021.2 5.7 4.811.1
2017-Oct-12 03:46N 59°30' W 139°42'0 0.0 090 / 11020.9 6.0 4.811.0
2017-Oct-12 02:47N 59°30' W 139°42'0 0.0 150 / 21020.8 11.2 5.710.7
2017-Oct-12 01:47N 59°30' W 139°42'0 0.0 280 / 61020.6 9.1 4.210.8
2017-Oct-12 00:47N 59°30' W 139°42'0 0.0 300 / 61020.6 10.8 4.111.1
2017-Oct-11 22:48N 59°30' W 139°42'0 0.0 280 / 61020.9 10.8 2.011.4
2017-Oct-11 21:48N 59°30' W 139°42'0 0.0 290 / 51021.0 9.5 2.910.8
2017-Oct-11 20:49N 59°30' W 139°42'0 0.0 300 / 21021.0 9.1 2.210.9
2017-Oct-11 19:49N 59°30' W 139°42'0 0.0 280 / 31021.2 8.7 2.911.2
2017-Oct-11 18:50N 59°30' W 139°42'3 3.7 310 / 21021.0 8.1 3.211.2
2017-Oct-11 18:00N 59°30' W 139°36'320.3 320 / 51020.810.8 11.4 10.7
2017-Oct-11 17:51N 59°30' W 139°42'3 3.0 330 / 21020.8 10.4 5.310.5
2017-Oct-11 16:51N 59°30' W 139°48'6 6.0 350 / 61020.5 7.5 3.910.8
2017-Oct-11 15:51N 59°36' W 139°48'6 7.1 350 / 81020.2 7.6 3.910.2
2017-Oct-11 15:00N 59°30' W 139°48'322.8 360 / 91017.0 5.4 7.8 3.111.2
2017-Oct-11 14:52N 59°30' W 139°54'1313.5 020 / 101019.9 7.7 3.411.3
2017-Oct-11 13:52N 59°18' W 139°42'1111.0 330 / 81019.9 7.6 4.510.9
2017-Oct-11 12:52N 59°12' W 139°24'1111.0 340 / 121019.4 7.0 3.211.0
2017-Oct-11 11:52N 59°06' W 139°06'1717.5 330 / 131019.5 8.3 3.411.6
2017-Oct-11 10:53N 58°54' W 138°42'1111.3 340 / 61019.6 6.6 3.811.8
2017-Oct-11 09:54N 58°48' W 138°24'1717.6 360 / 81019.8 9.2 5.411.6
2017-Oct-11 08:55N 58°36' W 138°00'1111.1 360 / 61019.8 9.6 5.511.8
2017-Oct-11 07:55N 58°30' W 137°42'1111.2 360 / 41020.3 8.6 4.311.3
2017-Oct-11 06:55N 58°24' W 137°24'2021.6 290 / 111020.0 10.0 5.911.5
2017-Oct-11 06:00N 58°12' W 136°54'337.9 320 / 131020.410.8 9.8 2.811.0
2017-Oct-11 05:55N 58°12' W 137°00'1111.2 300 / 101020.2 9.8 6.511.1
2017-Oct-11 04:55N 58°06' W 136°42'1111.2 280 / 71020.6 10.3 6.1 9.3
2017-Oct-11 03:55N 58°12' W 136°24'1414.2 060 / 71021.3 7.3 6.0 8.1
2017-Oct-11 02:56N 58°18' W 136°00'1414.0 220 / 21021.3 7.2 5.2 8.0
2017-Oct-11 01:56N 58°12' W 135°36'1312.6 140 / 11021.9 6.6 4.2 8.2
2017-Oct-11 00:56N 58°12' W 135°12'15 7.6 240 / 21022.3 6.8 4.5 8.6
2017-Oct-10 22:56N 58°24' W 134°54'9 8.7 310 / 91022.8 9.2 1.3 9.8
2017-Oct-10 21:56N 58°18' W 134°42'1415.0 360 / 41023.4 7.9 3.6 9.6
2017-Oct-10 21:00N 58°12' W 134°18'7135.7 270 / 131020.6 5.4 10.0 4.2 9.5
2017-Oct-10 20:57N 58°06' W 134°24'7 6.8 280 / 151023.0 8.4 3.6 9.5
2017-Oct-10 19:57N 58°12' W 134°18'7 6.8 310 / 111024.0 11.5 5.5 9.5
2017-Oct-10 18:57N 58°18' W 134°24'0 0.0 290 / 41024.4 7.7 5.0 9.5
2017-Oct-10 17:57N 58°18' W 134°24'0 0.0 280 / 81024.3 5.6 3.8 9.5
2017-Oct-10 16:57N 58°18' W 134°24'0 0.0 340 / 31024.1 4.9 3.0 9.5
2017-Oct-10 15:57N 58°18' W 134°24'0 0.0 350 / 41024.0 4.6 2.9 9.6
2017-Oct-10 14:57N 58°18' W 134°24'0 0.0 320 / 31023.8 4.7 3.1 9.6
2017-Oct-10 13:57N 58°18' W 134°24'0 0.0 310 / 41023.2 5.3 3.7 9.6
2017-Oct-10 12:57N 58°18' W 134°24'0 0.0 340 / 31022.7 4.7 3.5 9.6
2017-Oct-10 11:57N 58°18' W 134°24'0 0.0 320 / 51022.6 4.6 3.5 9.6
2017-Oct-10 10:57N 58°18' W 134°24'0 0.0 320 / 41022.5 4.5 3.2 9.7
2017-Oct-10 09:58N 58°18' W 134°24'0 0.0 300 / 31022.7 4.5 3.8 9.7
2017-Oct-10 08:58N 58°18' W 134°24'0 0.0 260 / 31022.5 4.5 3.8 9.7
2017-Oct-10 06:58N 58°18' W 134°24'0 0.0 350 / 21021.5 5.1 4.4 9.7
2017-Oct-10 05:58N 58°18' W 134°24'0 0.0 330 / 31020.9 5.3 4.5 9.8
2017-Oct-10 04:58N 58°18' W 134°24'0 0.0 300 / 41020.6 5.5 4.9 9.8
2017-Oct-10 03:59N 58°18' W 134°24'0 0.0 300 / 41019.7 5.7 4.8 9.8
2017-Oct-10 02:59N 58°18' W 134°24'0 0.0 330 / 31018.8 6.6 5.5 9.9
2017-Oct-10 01:59N 58°18' W 134°24'0 0.0 340 / 11017.9 8.1 6.8 9.9
2017-Oct-10 00:59N 58°18' W 134°24'0 0.0 330 / 11017.2 9.8 5.4 9.8
2017-Oct-09 22:59N 58°18' W 134°24'0 0.0 150 / 41016.6 8.6 5.8 9.8
2017-Oct-09 21:59N 58°18' W 134°24'0 0.0 070 / 21016.5 11.0 6.9 9.7
2017-Oct-09 21:00N 58°18' W 134°24'0 0.0 140 / 61016.6 8.5 6.4 9.7
2017-Oct-09 20:00N 58°18' W 134°24'0 0.0 150 / 31016.3 8.9 6.3 9.7
2017-Oct-09 19:00N 58°18' W 134°24'0 0.0 140 / 101015.8 9.7 5.8 9.7
2017-Oct-09 18:00N 58°18' W 134°24'0 0.0 130 / 61015.4 8.8 5.9 9.7
2017-Oct-09 17:00N 58°18' W 134°24'0 0.0 180 / 11014.6 9.1 6.2 9.7
2017-Oct-09 16:00N 58°18' W 134°24'   130 / 61014.1 8.1 5.7 9.7
Track history (hours):
 
Tides and Currents Weather Stations Pressure Air Temp Water Temp Dewpoint Dewpoint Depression Visibility Wind Speed Wind Dir Waves Ship Positions

Oceanographic research ship Fairweather (USA)

Detailed information on ship capabilities available from University of Delaware's Ocean Information Center.

Last reported at 2017-Oct-19 16:00 UTC. Time now 2017-Oct-19 16:34 UTC.
Position N 59°30' W 139°42'.

Type: Other ship. MMSI: 369960000.

Wind from 290 at 2 knots

Barometer 979.7 mb
Air temperature 6.3 ° C
Dewpoint 4.6 ° C
Water temperature 9.5 ° C

Date/timePositionNaut miles runAvg speedWind from/ knotsBaromVisibWave heightAir tempDewpointWater temp
2017-Oct-19 16:00N 59°30' W 139°42'0 0.0 290 / 2979.7 6.3 4.6 9.5
2017-Oct-19 15:00N 59°30' W 139°42'0 0.0 120 / 5979.7 5.4 3.1 9.6
2017-Oct-19 14:00N 59°30' W 139°42'0 0.0 130 / 4979.7 6.9 2.1 9.8
2017-Oct-19 13:00N 59°30' W 139°42'0 0.0 110 / 2979.7 9.6 4.3 9.8
2017-Oct-19 12:00N 59°30' W 139°42'0 0.0 030 / 4979.7 10.3 3.410.1
2017-Oct-19 11:00N 59°30' W 139°42'0 0.0 030 / 5979.7 7.7 3.8 9.9
2017-Oct-19 10:00N 59°30' W 139°42'0 0.0 100 / 4979.7 5.8 2.6 9.8
2017-Oct-19 09:00N 59°30' W 139°42'0 0.0 979.7 6.0 2.5 9.6
2017-Oct-19 08:00N 59°30' W 139°42'0 0.0 120 / 2979.7 10.0 3.3 9.8
2017-Oct-19 07:00N 59°30' W 139°42'0 0.0 090 / 3979.7 6.9 2.1 9.3
2017-Oct-19 06:00N 59°30' W 139°42'0 0.0 110 / 4979.7 10.8 2.6 9.8
2017-Oct-19 04:40N 59°30' W 139°42'0 0.0 070 / 3979.7 11.4 4.2 9.7
2017-Oct-19 03:40N 59°30' W 139°42'0 0.0 090 / 3979.7 11.2 4.2 9.3
2017-Oct-19 02:40N 59°30' W 139°42'0 0.0 090 / 2979.7 7.7 5.1 9.3
2017-Oct-19 01:40N 59°30' W 139°42'0 0.0 979.7 9.1 4.4 9.9
2017-Oct-19 00:40N 59°30' W 139°42'0 0.0 090 / 3979.7 9.5 2.210.4
2017-Oct-18 22:40N 59°30' W 139°42'0 0.0 020 / 1979.7 10.3 0.7 9.4
2017-Oct-18 21:40N 59°30' W 139°42'0 0.0 040 / 3979.7 9.3-0.6 9.1
2017-Oct-18 20:40N 59°30' W 139°42'0 0.0 110 / 4979.7 10.5 1.5 9.6
2017-Oct-18 19:40N 59°30' W 139°42'0 0.0 040 / 2979.7 9.8-1.8 9.7
2017-Oct-18 18:40N 59°30' W 139°42'3 4.6 110 / 2979.5 6.9 3.6 9.8
2017-Oct-18 18:00N 59°30' W 139°36'3 9.1 290 / 2979.5 7.5 9.6
2017-Oct-18 17:40N 59°30' W 139°42'0 0.0 280 / 4979.5 8.4 3.2 9.8
2017-Oct-18 16:40N 59°30' W 139°42'0 0.0 140 / 5979.3 9.2 3.2 9.5
2017-Oct-18 15:41N 59°30' W 139°42'0 0.0 040 / 7979.4 7.2 0.6 9.4
2017-Oct-18 14:41N 59°30' W 139°42'0 0.0 080 / 4980.6 6.2 2.4 9.5
2017-Oct-18 13:41N 59°30' W 139°42'0 0.0 090 / 4982.0 6.0 2.0 9.6
2017-Oct-18 12:41N 59°30' W 139°42'0 0.0 120 / 3983.3 6.4 1.710.4
2017-Oct-18 11:41N 59°30' W 139°42'0 0.0 100 / 4985.3 5.4 1.310.3
2017-Oct-18 10:41N 59°30' W 139°42'0 0.0 080 / 5987.0 6.7 1.0 9.7
2017-Oct-18 09:41N 59°30' W 139°42'0 0.0 070 / 6988.7 5.9 1.510.0
2017-Oct-18 08:42N 59°30' W 139°42'0 0.0 070 / 2990.9 5.3 2.5 9.6
2017-Oct-18 07:42N 59°30' W 139°42'0 0.0 060 / 8992.2 5.8 1.8 9.4
2017-Oct-18 06:42N 59°30' W 139°42'0 0.0 060 / 13993.5 5.4 1.5 9.9
2017-Oct-18 05:42N 59°30' W 139°42'0 0.0 040 / 10994.9 5.5 2.210.0
2017-Oct-18 04:42N 59°30' W 139°42'0 0.0 080 / 10996.2 4.8 2.4 9.6
2017-Oct-18 03:42N 59°30' W 139°42'7 6.7 030 / 5997.3 4.3 3.2 9.9
2017-Oct-18 02:42N 59°36' W 139°48'6 6.0 100 / 21997.1 5.6 3.2 9.8
2017-Oct-18 01:42N 59°42' W 139°48'9 8.5 130 / 22998.2 6.3 3.3 9.4
2017-Oct-18 00:42N 59°48' W 139°36'7 3.4 140 / 8999.1 8.2 3.0 9.0
2017-Oct-17 22:43N 59°42' W 139°42'3 3.0 120 / 22999.3 5.7 2.8 8.5
2017-Oct-17 21:43N 59°42' W 139°48'3 4.2 130 / 19999.7 5.1 3.5 9.9
2017-Oct-17 21:00N 59°42' W 139°42'0 0.0 050 / 9999.1 5.4 6.7 4.4 8.9
2017-Oct-17 20:43N 59°42' W 139°42'3 3.0 150 / 8999.3 6.2 2.4 8.8
2017-Oct-17 19:43N 59°42' W 139°48'9 8.7 100 / 18999.1 5.6 3.0 9.2
2017-Oct-17 18:44N 59°36' W 140°00'1114.9 100 / 24998.7 5.2 3.410.1
2017-Oct-17 18:00N 59°42' W 139°42'311.4 080 / 9999.8 5.4 5.5-28.1 9.1
2017-Oct-17 17:44N 59°42' W 139°48'9 8.5 100 / 8999.6 5.6 1.6 9.0
2017-Oct-17 16:44N 59°48' W 139°36'0 0.0 130 / 11000.0 5.0 3.0 8.6
2017-Oct-17 15:44N 59°48' W 139°36'3 4.1 020 / 71000.0 5.5 0.6 8.7
2017-Oct-17 15:00N 59°48' W 139°30'311.3 090 / 5998.0 2.2 5.9 0.8 8.9
2017-Oct-17 14:44N 59°48' W 139°36'0 0.0 100 / 21000.3 4.8 3.0 8.9
2017-Oct-17 13:44N 59°48' W 139°36'0 0.0 060 / 21000.5 4.9 2.9 9.0
2017-Oct-17 12:44N 59°48' W 139°36'0 0.0 070 / 41000.6 4.2 2.7 9.1
2017-Oct-17 11:44N 59°48' W 139°36'0 0.0 110 / 31000.7 4.6 3.2 9.1
2017-Oct-17 10:44N 59°48' W 139°36'0 0.0 110 / 41001.0 4.7 3.3 9.1
2017-Oct-17 09:45N 59°48' W 139°36'0 0.0 1001.0 5.1 3.2 8.8
2017-Oct-17 08:45N 59°48' W 139°36'0 0.0 080 / 31000.8 5.5 3.0 8.9
2017-Oct-17 07:46N 59°48' W 139°36'0 0.0 060 / 21000.6 7.5 3.8 9.1
2017-Oct-17 06:46N 59°48' W 139°36'0 0.0 040 / 41000.7 7.7 4.4 9.0
2017-Oct-17 05:46N 59°48' W 139°36'0 0.0 160 / 41000.7 4.5 3.1 8.9
2017-Oct-17 04:47N 59°48' W 139°36'3 3.9 200 / 61000.5 5.5 3.0 9.0
2017-Oct-17 04:00N 59°48' W 139°30'313.9 180 / 51000.5 7.0 9.1
2017-Oct-17 03:47N 59°48' W 139°36'0 0.0 240 / 11000.3 7.2 4.7 9.1
2017-Oct-17 02:47N 59°48' W 139°36'0 0.0 040 / 21000.0 5.4 3.9 9.1
2017-Oct-17 01:48N 59°48' W 139°36'0 0.0 020 / 61000.2 4.8 3.4 9.1
2017-Oct-17 00:48N 59°48' W 139°36'9 4.3 170 / 61000.1 6.6 4.4 9.2
2017-Oct-16 22:49N 59°42' W 139°48'0 0.0 120 / 3999.4 6.4 3.8 9.1
2017-Oct-16 21:49N 59°42' W 139°48'6 7.3 130 / 6999.5 6.3 3.6 9.0
2017-Oct-16 21:00N 59°36' W 139°48'316.6 110 / 9997.0 5.4 6.4 9.7
2017-Oct-16 20:49N 59°36' W 139°54'9 8.7 100 / 9999.1 6.4 3.510.3
2017-Oct-16 19:50N 59°42' W 139°42'7 6.7 050 / 3999.1 6.7 3.8 8.9
2017-Oct-16 18:50N 59°48' W 139°36'3 3.0 020 / 3998.8 6.5 2.6 8.8
2017-Oct-16 17:50N 59°48' W 139°42'0 0.0 030 / 13998.9 5.9 2.8 8.9
2017-Oct-16 16:50N 59°48' W 139°42'7 6.7 060 / 15998.8 5.7 3.3 8.9
2017-Oct-16 15:50N 59°54' W 139°36'3 3.1 050 / 10999.4 5.0 2.9 8.3
2017-Oct-16 14:51N 59°54' W 139°30'0 0.0 999.8 4.6 2.7 9.2
2017-Oct-16 13:51N 59°54' W 139°30'0 0.0 050 / 21000.5 5.7 3.7 9.3
2017-Oct-16 12:51N 59°54' W 139°30'0 0.0 360 / 121000.9 5.4 2.9 8.7
2017-Oct-16 11:51N 59°54' W 139°30'0 0.0 020 / 41001.7 5.8 3.3 9.3
2017-Oct-16 10:52N 59°54' W 139°30'0 0.0 360 / 61002.0 3.6 2.3 8.9
2017-Oct-16 09:52N 59°54' W 139°30'0 0.0 350 / 11002.2 4.2 2.4 9.5
2017-Oct-16 08:52N 59°54' W 139°30'0 0.0 120 / 21002.1 4.8 3.2 9.2
2017-Oct-16 07:52N 59°54' W 139°30'0 0.0 060 / 31002.0 4.0 2.0 9.2
2017-Oct-16 06:52N 59°54' W 139°30'0 0.0 020 / 41001.8 3.4 1.8 9.2
2017-Oct-16 05:53N 59°54' W 139°30'0 0.0 020 / 91001.5 3.6 2.0 9.2
2017-Oct-16 04:53N 59°54' W 139°30'0 0.0 270 / 21001.5 4.2 3.1 9.5
2017-Oct-16 03:53N 59°54' W 139°30'0 0.0 1001.2 4.3 3.1 9.0
2017-Oct-16 02:53N 59°54' W 139°30'0 0.0 170 / 21001.0 5.2 4.0 9.1
2017-Oct-16 01:53N 59°54' W 139°30'0 0.0 010 / 51000.6 4.5 2.9 9.2
2017-Oct-16 00:53N 59°54' W 139°30'0 0.0 120 / 31000.7 6.7 4.0 9.3
2017-Oct-15 22:54N 59°54' W 139°30'0 0.0 350 / 21000.2 4.3 2.6 9.3
2017-Oct-15 21:54N 59°54' W 139°30'3 3.3 020 / 5999.8 4.3 2.7 9.4
2017-Oct-15 21:00N 59°54' W 139°24'330.1 020 / 5996.1 2.2 6.9-0.1 9.2
2017-Oct-15 20:54N 59°54' W 139°30'0 0.0 360 / 2998.9 4.3 3.0 9.3
2017-Oct-15 19:54N 59°54' W 139°30'0 0.0 050 / 3998.0 7.7 4.0 9.4
2017-Oct-15 18:54N 59°54' W 139°30'0 0.0 290 / 2996.9 5.8 3.4 9.3
2017-Oct-15 17:55N 59°54' W 139°30'0 0.0 070 / 4995.7 6.4 3.2 9.1
2017-Oct-15 16:55N 59°54' W 139°30'0 0.0 190 / 3994.6 6.9 2.4 9.3
2017-Oct-15 15:55N 59°54' W 139°30'3 3.3 010 / 7993.0 7.9 2.8 9.3
2017-Oct-15 15:00N 59°54' W 139°24'336.1 080 / 5990.0 2.2 8.7 9.3
2017-Oct-15 14:55N 59°54' W 139°30'0 0.0 080 / 8992.1 8.9 1.5 9.3
2017-Oct-15 13:55N 59°54' W 139°30'0 0.0 350 / 8991.4 7.5 2.3 9.7
2017-Oct-15 12:55N 59°54' W 139°30'0 0.0 330 / 8991.8 7.4 2.5 9.2
2017-Oct-15 11:56N 59°54' W 139°30'0 0.0 060 / 18991.7 9.2 0.6 9.3
2017-Oct-15 10:56N 59°54' W 139°30'0 0.0 030 / 10992.4 6.9 2.4 9.2
2017-Oct-15 09:56N 59°54' W 139°30'0 0.0 070 / 8993.5 7.5 2.0 9.1
2017-Oct-15 08:56N 59°54' W 139°30'0 0.0 040 / 9993.5 7.9 1.9 9.2
2017-Oct-15 06:56N 59°54' W 139°30'0 0.0 120 / 10996.0 8.7-0.3 9.1
2017-Oct-15 05:56N 59°54' W 139°30'0 0.0 350 / 12996.8 7.8 2.5 9.1
2017-Oct-15 04:56N 59°54' W 139°30'0 0.0 080 / 5999.9 7.9 1.0 8.9
2017-Oct-15 03:57N 59°54' W 139°30'0 0.0 080 / 71002.8 7.2 2.3 9.1
2017-Oct-15 02:57N 59°54' W 139°30'0 0.0 010 / 121005.2 5.4 3.5 9.2
2017-Oct-15 01:57N 59°54' W 139°30'0 0.0 150 / 21007.1 6.0 3.8 8.9
2017-Oct-15 00:57N 59°54' W 139°30'0 0.0 020 / 51008.3 7.3 4.1 8.9
2017-Oct-14 22:57N 59°54' W 139°30'0 0.0 020 / 71010.8 5.5 3.1 9.1
2017-Oct-14 21:58N 59°54' W 139°30'0 0.0 010 / 111011.9 5.2 3.4 9.1
2017-Oct-14 20:58N 59°54' W 139°30'0 0.0 010 / 51012.8 5.3 3.7 9.0
2017-Oct-14 19:58N 59°54' W 139°30'0 0.0 020 / 31013.5 5.9 3.0 9.0
2017-Oct-14 18:58N 59°54' W 139°30'0 0.0 360 / 101013.4 5.1 3.2 9.1
2017-Oct-14 17:58N 59°54' W 139°30'0 0.0 350 / 51013.7 4.9 3.5 9.1
2017-Oct-14 16:58N 59°54' W 139°30'0 0.0 030 / 31013.5 4.9 3.8 9.2
2017-Oct-14 15:59N 59°54' W 139°30'0 0.0 040 / 21013.8 4.9 3.5 9.0
2017-Oct-14 14:59N 59°54' W 139°30'0 0.0 010 / 131013.6 5.2 3.6 9.4
2017-Oct-14 13:59N 59°54' W 139°30'0 0.0 010 / 71014.0 5.1 3.2 9.2
2017-Oct-14 12:59N 59°54' W 139°30'3 3.1 010 / 111014.0 5.4 4.8 9.2
2017-Oct-14 12:00N 59°54' W 139°24'3 3.0 020 / 131010.1 6.7 5.5 9.4
2017-Oct-14 11:00N 59°54' W 139°30'0 0.0 030 / 51013.6 9.5 6.3 8.7
2017-Oct-14 10:00N 59°54' W 139°30'0 0.0 030 / 31013.5 6.2 5.0 9.1
2017-Oct-14 08:39N 59°54' W 139°30'0 0.0 020 / 41013.3 5.9 5.2 9.1
2017-Oct-14 07:40N 59°54' W 139°30'0 0.0 030 / 41013.2 5.9 5.0 8.9
2017-Oct-14 06:40N 59°54' W 139°30'3 4.5 080 / 81012.5 7.5 3.8 8.9
2017-Oct-14 06:00N 59°54' W 139°24'3 9.0 5.4
2017-Oct-14 05:40N 59°54' W 139°30'0 0.0 160 / 51012.3 7.3 4.9 7.7
2017-Oct-14 04:40N 59°54' W 139°30'0 0.0 270 / 21011.7 11.6 5.3 8.9
2017-Oct-14 03:40N 59°54' W 139°30'0 0.0 030 / 91011.9 7.5 4.7 9.0
2017-Oct-14 02:40N 59°54' W 139°30'0 0.0 020 / 91012.4 7.1 4.2 8.9
2017-Oct-14 01:40N 59°54' W 139°30'3 3.1 020 / 101012.8 6.1 4.6 9.1
2017-Oct-14 00:41N 59°54' W 139°36'12 6.2 030 / 141012.3 5.6 5.0 9.2
2017-Oct-13 22:41N 59°42' W 139°42'3 3.0 120 / 221012.0 8.0 6.5 8.6
2017-Oct-13 21:41N 59°42' W 139°48'0 0.0 100 / 181012.3 7.5 6.4 9.0
2017-Oct-13 20:41N 59°42' W 139°48'1212.0 080 / 171013.2 7.0 6.2 8.6
2017-Oct-13 19:41N 59°30' W 139°48'3 3.0 080 / 151013.4 6.4 5.8 9.9
2017-Oct-13 18:41N 59°30' W 139°42'0 0.0 060 / 111014.4 5.6 5.010.3
2017-Oct-13 17:41N 59°30' W 139°42'0 0.0 030 / 41015.1 5.7 5.210.4
2017-Oct-13 16:41N 59°30' W 139°42'0 0.0 050 / 41015.9 5.2 4.610.8
2017-Oct-13 15:42N 59°30' W 139°42'0 0.0 050 / 71016.8 4.8 4.010.8
2017-Oct-13 14:42N 59°30' W 139°42'0 0.0 080 / 131017.6 5.0 4.010.5
2017-Oct-13 13:42N 59°30' W 139°42'0 0.0 090 / 151018.7 5.2 4.010.4
2017-Oct-13 12:42N 59°30' W 139°42'0 0.0 090 / 121019.1 5.4 4.010.3
2017-Oct-13 11:42N 59°30' W 139°42'0 0.0 090 / 71019.5 5.6 4.510.3
2017-Oct-13 10:42N 59°30' W 139°42'0 0.0 070 / 51020.5 5.8 4.110.4
2017-Oct-13 09:42N 59°30' W 139°42'0 0.0 090 / 71021.1 6.4 3.810.4
2017-Oct-13 08:42N 59°30' W 139°42'0 0.0 090 / 91021.2 6.8 2.910.4
2017-Oct-13 07:42N 59°30' W 139°42'0 0.0 100 / 81021.1 6.5 1.210.4
2017-Oct-13 06:42N 59°30' W 139°42'0 0.0 100 / 61021.4 6.3 0.210.5
2017-Oct-13 05:42N 59°30' W 139°42'0 0.0 100 / 81021.5 6.4 0.510.5
2017-Oct-13 04:42N 59°30' W 139°42'0 0.0 090 / 81021.8 6.5 0.810.7
2017-Oct-13 03:43N 59°30' W 139°42'0 0.0 120 / 41022.2 6.7 1.710.6
2017-Oct-13 02:43N 59°30' W 139°42'0 0.0 080 / 31022.4 8.9 5.710.9
2017-Oct-13 01:43N 59°30' W 139°42'0 0.0 290 / 11022.4 11.9 4.311.1
2017-Oct-13 00:43N 59°30' W 139°42'0 0.0 300 / 41022.7 10.5 2.710.8
2017-Oct-12 22:43N 59°30' W 139°42'0 0.0 270 / 31023.5 11.3 5.011.3
2017-Oct-12 21:43N 59°30' W 139°42'3 4.2 280 / 31023.6 9.6 4.911.5
2017-Oct-12 21:00N 59°30' W 139°36'311.4 290 / 21021.3 5.4 11.0 11.3
2017-Oct-12 20:44N 59°30' W 139°42'0 0.0 270 / 11023.9 10.1 5.511.4
2017-Oct-12 19:44N 59°30' W 139°42'0 0.0 280 / 11023.7 15.7 5.510.9
2017-Oct-12 18:44N 59°30' W 139°42'3 4.2 210 / 11023.5 7.3 3.511.0
2017-Oct-12 18:00N 59°30' W 139°36'311.4 090 / 21020.727.0 5.4 10.3
2017-Oct-12 17:44N 59°30' W 139°42'0 0.0 090 / 21023.1 6.1 2.010.5
2017-Oct-12 16:44N 59°30' W 139°42'0 0.0 110 / 31022.9 9.2 2.810.3
2017-Oct-12 15:44N 59°30' W 139°42'3 4.2 110 / 61022.6 2.9 2.310.7
2017-Oct-12 15:00N 59°30' W 139°36'312.2 080 / 21020.0 2.5 1.311.6
2017-Oct-12 14:45N 59°30' W 139°42'0 0.0 100 / 41022.6 2.8 2.311.6
2017-Oct-12 13:45N 59°30' W 139°42'0 0.0 100 / 51022.3 3.0 2.511.4
2017-Oct-12 12:45N 59°30' W 139°42'3 4.1 100 / 41022.4 2.9 2.311.3
2017-Oct-12 12:00N 59°30' W 139°36'312.2 110 / 21019.9 3.2 1.310.9
2017-Oct-12 11:45N 59°30' W 139°42'0 0.0 100 / 31022.3 3.2 2.311.1
2017-Oct-12 10:46N 59°30' W 139°42'0 0.0 110 / 21022.1 3.6 2.511.0
2017-Oct-12 09:46N 59°30' W 139°42'0 0.0 1022.1 3.6 2.510.5
2017-Oct-12 08:46N 59°30' W 139°42'0 0.0 100 / 41022.1 4.7 3.010.2
2017-Oct-12 07:46N 59°30' W 139°42'0 0.0 090 / 31022.0 5.0 4.510.9
2017-Oct-12 06:46N 59°30' W 139°42'3 4.0 110 / 41021.8 4.7 4.110.9
2017-Oct-12 06:00N 59°30' W 139°36'313.1 120 / 21021.5 5.5 3.810.6
2017-Oct-12 05:46N 59°30' W 139°42'0 0.0 150 / 11021.5 5.3 4.510.6
2017-Oct-12 04:46N 59°30' W 139°42'0 0.0 110 / 31021.2 5.7 4.811.1
2017-Oct-12 03:46N 59°30' W 139°42'0 0.0 090 / 11020.9 6.0 4.811.0
2017-Oct-12 02:47N 59°30' W 139°42'0 0.0 150 / 21020.8 11.2 5.710.7
2017-Oct-12 01:47N 59°30' W 139°42'0 0.0 280 / 61020.6 9.1 4.210.8
2017-Oct-12 00:47N 59°30' W 139°42'0 0.0 300 / 61020.6 10.8 4.111.1
2017-Oct-11 22:48N 59°30' W 139°42'0 0.0 280 / 61020.9 10.8 2.011.4
2017-Oct-11 21:48N 59°30' W 139°42'0 0.0 290 / 51021.0 9.5 2.910.8
2017-Oct-11 20:49N 59°30' W 139°42'0 0.0 300 / 21021.0 9.1 2.210.9
2017-Oct-11 19:49N 59°30' W 139°42'0 0.0 280 / 31021.2 8.7 2.911.2
2017-Oct-11 18:50N 59°30' W 139°42'3 3.7 310 / 21021.0 8.1 3.211.2
2017-Oct-11 18:00N 59°30' W 139°36'320.3 320 / 51020.810.8 11.4 10.7
2017-Oct-11 17:51N 59°30' W 139°42'3 3.0 330 / 21020.8 10.4 5.310.5
2017-Oct-11 16:51N 59°30' W 139°48'6 6.0 350 / 61020.5 7.5 3.910.8
2017-Oct-11 15:51N 59°36' W 139°48'6 7.1 350 / 81020.2 7.6 3.910.2
2017-Oct-11 15:00N 59°30' W 139°48'322.8 360 / 91017.0 5.4 7.8 3.111.2
2017-Oct-11 14:52N 59°30' W 139°54'1313.5 020 / 101019.9 7.7 3.411.3
2017-Oct-11 13:52N 59°18' W 139°42'1111.0 330 / 81019.9 7.6 4.510.9
2017-Oct-11 12:52N 59°12' W 139°24'1111.0 340 / 121019.4 7.0 3.211.0
2017-Oct-11 11:52N 59°06' W 139°06'1717.5 330 / 131019.5 8.3 3.411.6
2017-Oct-11 10:53N 58°54' W 138°42'1111.3 340 / 61019.6 6.6 3.811.8
2017-Oct-11 09:54N 58°48' W 138°24'1717.6 360 / 81019.8 9.2 5.411.6
2017-Oct-11 08:55N 58°36' W 138°00'1111.1 360 / 61019.8 9.6 5.511.8
2017-Oct-11 07:55N 58°30' W 137°42'1111.2 360 / 41020.3 8.6 4.311.3
2017-Oct-11 06:55N 58°24' W 137°24'2021.6 290 / 111020.0 10.0 5.911.5
2017-Oct-11 06:00N 58°12' W 136°54'337.9 320 / 131020.410.8 9.8 2.811.0
2017-Oct-11 05:55N 58°12' W 137°00'1111.2 300 / 101020.2 9.8 6.511.1
2017-Oct-11 04:55N 58°06' W 136°42'1111.2 280 / 71020.6 10.3 6.1 9.3
2017-Oct-11 03:55N 58°12' W 136°24'1414.2 060 / 71021.3 7.3 6.0 8.1
2017-Oct-11 02:56N 58°18' W 136°00'1414.0 220 / 21021.3 7.2 5.2 8.0
2017-Oct-11 01:56N 58°12' W 135°36'1312.6 140 / 11021.9 6.6 4.2 8.2
2017-Oct-11 00:56N 58°12' W 135°12'15 7.6 240 / 21022.3 6.8 4.5 8.6
2017-Oct-10 22:56N 58°24' W 134°54'9 8.7 310 / 91022.8 9.2 1.3 9.8
2017-Oct-10 21:56N 58°18' W 134°42'1415.0 360 / 41023.4 7.9 3.6 9.6
2017-Oct-10 21:00N 58°12' W 134°18'7135.7 270 / 131020.6 5.4 10.0 4.2 9.5
2017-Oct-10 20:57N 58°06' W 134°24'7 6.8 280 / 151023.0 8.4 3.6 9.5
2017-Oct-10 19:57N 58°12' W 134°18'7 6.8 310 / 111024.0 11.5 5.5 9.5
2017-Oct-10 18:57N 58°18' W 134°24'0 0.0 290 / 41024.4 7.7 5.0 9.5
2017-Oct-10 17:57N 58°18' W 134°24'0 0.0 280 / 81024.3 5.6 3.8 9.5
2017-Oct-10 16:57N 58°18' W 134°24'0 0.0 340 / 31024.1 4.9 3.0 9.5
2017-Oct-10 15:57N 58°18' W 134°24'0 0.0 350 / 41024.0 4.6 2.9 9.6
2017-Oct-10 14:57N 58°18' W 134°24'0 0.0 320 / 31023.8 4.7 3.1 9.6
2017-Oct-10 13:57N 58°18' W 134°24'0 0.0 310 / 41023.2 5.3 3.7 9.6
2017-Oct-10 12:57N 58°18' W 134°24'0 0.0 340 / 31022.7 4.7 3.5 9.6
2017-Oct-10 11:57N 58°18' W 134°24'0 0.0 320 / 51022.6 4.6 3.5 9.6
2017-Oct-10 10:57N 58°18' W 134°24'0 0.0 320 / 41022.5 4.5 3.2 9.7
2017-Oct-10 09:58N 58°18' W 134°24'0 0.0 300 / 31022.7 4.5 3.8 9.7
2017-Oct-10 08:58N 58°18' W 134°24'0 0.0 260 / 31022.5 4.5 3.8 9.7
2017-Oct-10 06:58N 58°18' W 134°24'0 0.0 350 / 21021.5 5.1 4.4 9.7
2017-Oct-10 05:58N 58°18' W 134°24'0 0.0 330 / 31020.9 5.3 4.5 9.8
2017-Oct-10 04:58N 58°18' W 134°24'0 0.0 300 / 41020.6 5.5 4.9 9.8
2017-Oct-10 03:59N 58°18' W 134°24'0 0.0 300 / 41019.7 5.7 4.8 9.8
2017-Oct-10 02:59N 58°18' W 134°24'0 0.0 330 / 31018.8 6.6 5.5 9.9
2017-Oct-10 01:59N 58°18' W 134°24'0 0.0 340 / 11017.9 8.1 6.8 9.9
2017-Oct-10 00:59N 58°18' W 134°24'0 0.0 330 / 11017.2 9.8 5.4 9.8
2017-Oct-09 22:59N 58°18' W 134°24'0 0.0 150 / 41016.6 8.6 5.8 9.8
2017-Oct-09 21:59N 58°18' W 134°24'0 0.0 070 / 21016.5 11.0 6.9 9.7
2017-Oct-09 21:00N 58°18' W 134°24'0 0.0 140 / 61016.6 8.5 6.4 9.7
2017-Oct-09 20:00N 58°18' W 134°24'0 0.0 150 / 31016.3 8.9 6.3 9.7
2017-Oct-09 19:00N 58°18' W 134°24'0 0.0 140 / 101015.8 9.7 5.8 9.7
2017-Oct-09 18:00N 58°18' W 134°24'0 0.0 130 / 61015.4 8.8 5.9 9.7
2017-Oct-09 17:00N 58°18' W 134°24'0 0.0 180 / 11014.6 9.1 6.2 9.7
2017-Oct-09 16:00N 58°18' W 134°24'   130 / 61014.1 8.1 5.7 9.7

Dump ship's entire track history